Time;durP1;ratioP1;P1;durP2;ratioP2;P2;SDS_P1;SDS_P2;PMS_P1;PMS_P2;Temp;Humidity;BMP_temperature;BMP_pressure;BME280_temperature;BME280_humidity;BME280_pressure;Samples;Min_cycle;Max_cycle;Signal;HPM_P1;HPM_P2
2022/08/08 00:00:18;;;;;;;;;;;;;;;21.88;55.21;102224.28;1029223;28;670;-68
2022/08/08 00:01:08;;;;;;;;;;;;;;;21.88;55.15;102219.69;1028989;28;737;-67
2022/08/08 00:01:59;;;;;;;;;;;;;;;21.88;55.23;102221.56;1028986;28;546;-67
2022/08/08 00:02:49;;;;;;;;;;;;;;;21.88;55.03;102225.13;1029247;28;677;-67
2022/08/08 00:03:40;;;;;;;;;;;;;;;21.89;55.27;102224.13;1028662;28;658;-68
2022/08/08 00:04:31;;;;;;;;;;;;;;;21.89;55.10;102228.69;1028862;28;664;-68
2022/08/08 00:05:21;;;;;;;;;;;;;;;21.88;54.91;102222.41;1028947;28;1194;-67
2022/08/08 00:06:12;;;;;;;;;;;;;;;21.87;55.03;102225.25;1028983;28;670;-67
2022/08/08 00:07:02;;;;;;;;;;;;;;;21.86;55.20;102223.53;1028960;28;643;-67
2022/08/08 00:07:52;;;;;;;;;;;;;;;21.83;55.43;102228.28;1029076;28;666;-68
2022/08/08 00:08:43;;;;;;;;;;;;;;;21.85;55.11;102227.28;1028505;28;636;-67
2022/08/08 00:09:33;;;;;;;;;;;;;;;21.85;55.29;102224.56;1029022;28;724;-67
2022/08/08 00:10:24;;;;;;;;;;;;;;;21.83;55.19;102222.00;1028925;28;614;-68
2022/08/08 00:11:14;;;;;;;;;;;;;;;21.83;55.14;102225.56;1028903;28;701;-68
2022/08/08 00:12:05;;;;;;;;;;;;;;;21.83;55.32;102222.84;1028986;28;693;-67
2022/08/08 00:12:55;;;;;;;;;;;;;;;21.81;55.12;102215.84;1028435;28;630;-67
2022/08/08 00:13:45;;;;;;;;;;;;;;;21.83;55.20;102225.56;1028942;28;673;-68
2022/08/08 00:14:36;;;;;;;;;;;;;;;21.82;55.19;102218.41;1028927;28;689;-68
2022/08/08 00:15:26;;;;;;;;;;;;;;;21.82;55.09;102215.72;1029052;28;684;-68
2022/08/08 00:16:17;;;;;;;;;;;;;;;21.81;55.14;102219.41;1028994;28;681;-68
2022/08/08 00:17:07;;;;;;;;;;;;;;;21.79;55.09;102218.69;1028873;28;673;-67
2022/08/08 00:17:58;;;;;;;;;;;;;;;21.79;55.17;102217.84;1028837;28;690;-68
2022/08/08 00:18:48;;;;;;;;;;;;;;;21.78;55.12;102214.25;1028843;28;638;-68
2022/08/08 00:19:39;;;;;;;;;;;;;;;21.79;55.34;102217.84;1029052;28;618;-67
2022/08/08 00:20:29;;;;;;;;;;;;;;;21.78;55.24;102210.69;1029051;28;657;-67
2022/08/08 00:21:20;;;;;;;;;;;;;;;21.78;55.43;102211.56;1028945;28;623;-67
2022/08/08 00:22:10;;;;;;;;;;;;;;;21.78;55.43;102216.97;1028969;28;693;-68
2022/08/08 00:23:00;;;;;;;;;;;;;;;21.78;55.26;102216.13;1028823;28;646;-67
2022/08/08 00:23:51;;;;;;;;;;;;;;;21.77;55.50;102220.69;1028953;28;670;-67
2022/08/08 00:24:41;;;;;;;;;;;;;;;21.77;55.26;102215.25;1028878;28;705;-68
2022/08/08 00:25:32;;;;;;;;;;;;;;;21.76;55.27;102215.41;1028800;28;641;-68
2022/08/08 00:26:22;;;;;;;;;;;;;;;21.74;55.19;102218.25;1028919;28;658;-67
2022/08/08 00:27:13;;;;;;;;;;;;;;;21.74;55.36;102215.53;1029094;28;763;-67
2022/08/08 00:28:03;;;;;;;;;;;;;;;21.74;55.29;102211.97;1029737;28;661;-67
2022/08/08 00:28:53;;;;;;;;;;;;;;;21.71;55.34;102212.22;1028990;28;579;-68
2022/08/08 00:29:45;;;;;;;;;;;;;;;21.72;55.42;102212.09;1028838;28;689;-68
2022/08/08 00:30:35;;;;;;;;;;;;;;;21.72;55.38;102211.22;1028914;28;662;-68
2022/08/08 00:31:25;;;;;;;;;;;;;;;21.71;55.03;102204.94;1028904;28;658;-68
2022/08/08 00:32:16;;;;;;;;;;;;;;;21.69;55.38;102208.78;1029585;28;607;-67
2022/08/08 00:33:06;;;;;;;;;;;;;;;21.72;55.00;102208.53;1029604;28;717;-67
2022/08/08 00:35:09;;;;;;;;;;;;;;;21.70;55.50;102205.94;1029646;28;642;-67
2022/08/08 00:35:10;;;;;;;;;;;;;;;21.71;55.37;102209.50;1029564;28;693;-67
2022/08/08 00:36:01;;;;;;;;;;;;;;;21.69;55.42;102201.50;1029641;28;634;-67
2022/08/08 00:36:51;;;;;;;;;;;;;;;21.69;55.28;102211.50;1029592;28;1967;-67
2022/08/08 00:37:41;;;;;;;;;;;;;;;21.67;55.39;102208.97;1029543;28;693;-67
2022/08/08 00:38:32;;;;;;;;;;;;;;;21.69;55.38;102200.66;1029565;28;654;-67
2022/08/08 00:39:22;;;;;;;;;;;;;;;21.66;55.50;102206.38;1029636;28;653;-70
2022/08/08 00:40:13;;;;;;;;;;;;;;;21.66;55.46;102207.25;1029600;28;686;-67
2022/08/08 00:41:03;;;;;;;;;;;;;;;21.66;55.46;102200.97;1029521;28;630;-67
2022/08/08 00:41:53;;;;;;;;;;;;;;;21.66;55.52;102207.25;1029189;28;642;-68
2022/08/08 00:42:44;;;;;;;;;;;;;;;21.66;55.42;102201.81;1029602;28;686;-67
2022/08/08 00:43:34;;;;;;;;;;;;;;;21.67;55.49;102208.09;1029617;28;690;-68
2022/08/08 00:44:25;;;;;;;;;;;;;;;21.66;55.50;102201.81;1029875;28;660;-68
2022/08/08 00:45:15;;;;;;;;;;;;;;;21.63;55.39;102202.09;1029352;28;694;-67
2022/08/08 00:46:06;;;;;;;;;;;;;;;21.64;55.41;102197.53;1030800;28;693;-68
2022/08/08 00:46:56;;;;;;;;;;;;;;;21.60;55.42;102196.94;1029621;28;631;-67
2022/08/08 00:47:46;;;;;;;;;;;;;;;21.60;55.49;102196.94;1029514;28;647;-67
2022/08/08 00:48:37;;;;;;;;;;;;;;;21.61;55.46;102201.38;1029586;28;638;-68
2022/08/08 00:49:27;;;;;;;;;;;;;;;21.63;55.64;102202.09;1029588;28;793;-67
2022/08/08 00:50:18;;;;;;;;;;;;;;;21.62;55.75;102202.22;1029508;28;685;-67
2022/08/08 00:51:08;;;;;;;;;;;;;;;21.63;55.68;102201.22;1029652;28;677;-67
2022/08/08 00:51:59;;;;;;;;;;;;;;;21.60;55.71;102205.06;1029592;28;713;-68
2022/08/08 00:52:49;;;;;;;;;;;;;;;21.61;55.69;102198.66;1029619;28;634;-67
2022/08/08 00:53:39;;;;;;;;;;;;;;;21.59;55.70;102195.22;1029545;28;635;-67
2022/08/08 00:54:30;;;;;;;;;;;;;;;21.59;55.61;102199.78;1029518;28;826;-68
2022/08/08 00:55:20;;;;;;;;;;;;;;;21.59;55.68;102195.22;1029482;28;725;-68
2022/08/08 00:56:11;;;;;;;;;;;;;;;21.60;55.53;102198.78;1029532;28;686;-67
2022/08/08 00:57:01;;;;;;;;;;;;;;;21.58;54.97;102193.50;1029383;28;1906;-67
2022/08/08 00:57:52;;;;;;;;;;;;;;;21.58;55.54;102195.34;1029561;28;647;-67
2022/08/08 00:58:42;;;;;;;;;;;;;;;21.58;55.69;102196.22;1029465;28;623;-67
2022/08/08 00:59:32;;;;;;;;;;;;;;;21.59;55.59;102194.34;1029557;28;682;-67
2022/08/08 01:00:23;;;;;;;;;;;;;;;21.59;55.48;102195.22;1030143;28;614;-68
2022/08/08 01:01:13;;;;;;;;;;;;;;;21.58;55.74;102193.50;1029518;28;662;-68
2022/08/08 01:02:04;;;;;;;;;;;;;;;21.56;55.55;102192.78;1029611;28;697;-68
2022/08/08 01:02:54;;;;;;;;;;;;;;;21.57;55.49;102201.78;1029436;28;690;-68
2022/08/08 01:03:45;;;;;;;;;;;;;;;21.56;55.66;102203.63;1029532;28;736;-68
2022/08/08 01:04:35;;;;;;;;;;;;;;;21.55;55.70;102204.63;1029655;28;642;-68
2022/08/08 01:05:25;;;;;;;;;;;;;;;21.56;55.58;102205.47;1029545;28;713;-68
2022/08/08 01:06:16;;;;;;;;;;;;;;;21.56;55.52;102206.34;1029451;28;646;-67
2022/08/08 01:07:06;;;;;;;;;;;;;;;21.55;55.73;102199.19;1029461;28;627;-67
2022/08/08 01:07:57;;;;;;;;;;;;;;;21.54;55.74;102208.31;1029453;28;631;-67
2022/08/08 01:08:47;;;;;;;;;;;;;;;21.52;55.69;102204.03;1029422;28;721;-67
2022/08/08 01:09:38;;;;;;;;;;;;;;;21.51;55.54;102205.88;1029843;28;610;-68
2022/08/08 01:10:30;;;;;;;;;;;;;;;21.50;55.63;102206.88;1029225;28;717;-67
2022/08/08 01:11:20;;;;;;;;;;;;;;;21.52;55.50;102204.88;1029189;28;701;-67
2022/08/08 01:12:10;;;;;;;;;;;;;;;21.48;55.82;102204.34;1030261;28;654;-67
2022/08/08 01:13:01;;;;;;;;;;;;;;;21.48;55.95;102204.34;1030655;28;657;-67
2022/08/08 01:13:51;;;;;;;;;;;;;;;21.50;55.91;102203.34;1029654;28;689;-67
2022/08/08 01:14:42;;;;;;;;;;;;;;;21.50;55.71;102209.59;1029274;28;560;-69
2022/08/08 01:15:32;;;;;;;;;;;;;;;21.51;55.73;102200.47;1029440;28;661;-67
2022/08/08 01:16:23;;;;;;;;;;;;;;;21.50;55.71;102197.91;1033001;28;646;-68
2022/08/08 01:17:13;;;;;;;;;;;;;;;21.52;55.76;102204.88;1033397;28;645;-67
2022/08/08 01:18:05;;;;;;;;;;;;;;;21.52;55.76;102204.88;1033529;28;737;-67
2022/08/08 01:18:55;;;;;;;;;;;;;;;21.51;55.76;102205.88;1033275;28;645;-68
2022/08/08 01:19:45;;;;;;;;;;;;;;;21.50;55.64;102206.88;1032624;28;674;-67
2022/08/08 01:20:36;;;;;;;;;;;;;;;21.50;55.69;102204.16;1032877;28;642;-67
2022/08/08 01:21:28;;;;;;;;;;;;;;;21.47;55.62;102213.47;1033495;28;646;-65
2022/08/08 01:22:18;;;;;;;;;;;;;;;21.47;55.79;102212.59;1033427;28;623;-65
2022/08/08 01:23:09;;;;;;;;;;;;;;;21.46;55.66;102205.47;1033413;28;705;-65
2022/08/08 01:23:59;;;;;;;;;;;;;;;21.45;55.78;102206.44;1033514;28;634;-66
2022/08/08 01:24:49;;;;;;;;;;;;;;;21.44;55.25;102211.03;1033474;28;669;-68
2022/08/08 01:25:40;;;;;;;;;;;;;;;21.45;55.71;102210.03;1032962;28;634;-66
2022/08/08 01:26:30;;;;;;;;;;;;;;;21.45;55.79;102211.88;1033420;28;670;-67
2022/08/08 01:27:22;;;;;;;;;;;;;;;21.46;55.84;102211.75;1033405;28;638;-66
2022/08/08 01:28:12;;;;;;;;;;;;;;;21.46;55.78;102211.75;1033521;28;701;-66
2022/08/08 01:29:02;;;;;;;;;;;;;;;21.46;55.89;102209.03;1033435;28;838;-66
2022/08/08 01:29:53;;;;;;;;;;;;;;;21.45;55.69;102207.31;1033398;28;686;-67
2022/08/08 01:30:44;;;;;;;;;;;;;;;21.43;55.95;102205.72;1033422;28;697;-67
2022/08/08 01:31:34;;;;;;;;;;;;;;;21.43;55.65;102206.59;1033413;28;627;-68
2022/08/08 01:32:24;;;;;;;;;;;;;;;21.42;55.89;102202.16;1033433;28;680;-66
2022/08/08 01:33:15;;;;;;;;;;;;;;;21.43;55.73;102203.88;1033477;28;566;-68
2022/08/08 01:34:05;;;;;;;;;;;;;;;21.42;55.87;102204.00;1033415;28;766;-67
2022/08/08 01:34:56;;;;;;;;;;;;;;;21.42;55.96;102198.59;1033486;28;1052;-68
2022/08/08 01:35:46;;;;;;;;;;;;;;;21.40;55.81;102201.44;1033416;28;637;-68
2022/08/08 01:36:37;;;;;;;;;;;;;;;21.41;55.69;102202.28;1033487;28;666;-68
2022/08/08 01:37:27;;;;;;;;;;;;;;;21.42;55.81;102194.03;1033430;28;686;-67
2022/08/08 01:38:18;;;;;;;;;;;;;;;21.42;55.89;102201.28;1033025;28;666;-68
2022/08/08 01:39:08;;;;;;;;;;;;;;;21.39;55.84;102199.72;1032550;28;650;-67
2022/08/08 01:39:59;;;;;;;;;;;;;;;21.39;55.90;102196.13;1032336;28;682;-67
2022/08/08 01:40:49;;;;;;;;;;;;;;;21.38;55.88;102194.41;1033528;28;630;-68
2022/08/08 01:41:40;;;;;;;;;;;;;;;21.39;55.98;102193.44;1033386;28;745;-67
2022/08/08 01:42:30;;;;;;;;;;;;;;;21.37;55.85;102195.41;1033339;28;642;-67
2022/08/08 01:43:20;;;;;;;;;;;;;;;21.37;55.89;102193.56;1032838;28;704;-68
2022/08/08 01:44:11;;;;;;;;;;;;;;;21.35;55.98;102189.25;1033331;28;634;-68
2022/08/08 01:45:01;;;;;;;;;;;;;;;21.36;55.94;102186.41;1033376;28;689;-68
2022/08/08 01:45:52;;;;;;;;;;;;;;;21.36;55.92;102190.97;1033361;28;677;-67
2022/08/08 01:46:42;;;;;;;;;;;;;;;21.37;55.75;102187.28;1033325;28;720;-67
2022/08/08 01:47:33;;;;;;;;;;;;;;;21.37;55.88;102195.41;1032737;28;678;-68
2022/08/08 01:48:23;;;;;;;;;;;;;;;21.32;55.97;102192.25;1032972;28;657;-67
2022/08/08 01:49:14;;;;;;;;;;;;;;;21.33;55.95;102183.13;1032603;28;658;-68
2022/08/08 01:50:04;;;;;;;;;;;;;;;21.33;55.83;102188.53;1032732;28;612;-67
2022/08/08 01:50:54;;;;;;;;;;;;;;;21.31;56.04;102188.72;1033030;28;665;-67
2022/08/08 01:51:45;;;;;;;;;;;;;;;21.30;55.96;102183.41;1032445;28;659;-68
2022/08/08 01:52:35;;;;;;;;;;;;;;;21.28;56.25;102185.41;1032734;28;626;-67
2022/08/08 01:53:26;;;;;;;;;;;;;;;21.28;56.03;102182.69;1033414;28;758;-67
2022/08/08 01:54:16;;;;;;;;;;;;;;;21.27;56.11;102180.97;1033317;28;622;-67
2022/08/08 01:55:07;;;;;;;;;;;;;;;21.26;56.39;102182.81;1033250;28;817;-67
2022/08/08 01:55:57;;;;;;;;;;;;;;;21.28;56.17;102183.56;1033304;28;681;-68
2022/08/08 01:56:47;;;;;;;;;;;;;;;21.28;55.96;102182.69;1033171;28;1977;-67
2022/08/08 01:57:38;;;;;;;;;;;;;;;21.29;56.09;102184.41;1033323;28;701;-67
2022/08/08 01:58:28;;;;;;;;;;;;;;;21.29;55.83;102181.69;1033349;28;733;-67
2022/08/08 01:59:19;;;;;;;;;;;;;;;21.27;56.24;102189.97;1033425;28;677;-68
2022/08/08 02:00:09;;;;;;;;;;;;;;;21.27;55.72;102183.69;1033337;28;610;-67
2022/08/08 02:01:00;;;;;;;;;;;;;;;21.27;55.82;102184.53;1033232;28;661;-68
2022/08/08 02:01:50;;;;;;;;;;;;;;;21.24;55.98;102187.53;1033349;28;626;-68
2022/08/08 02:02:41;;;;;;;;;;;;;;;21.25;56.28;102185.66;1033330;28;794;-67
2022/08/08 02:03:31;;;;;;;;;;;;;;;21.25;55.88;102193.81;1032683;28;653;-68
2022/08/08 02:04:22;;;;;;;;;;;;;;;21.24;56.14;102187.53;1033316;28;669;-67
2022/08/08 02:05:12;;;;;;;;;;;;;;;21.21;56.11;102190.50;1033220;28;658;-67
2022/08/08 02:06:02;;;;;;;;;;;;;;;21.22;55.88;102194.94;1033296;28;798;-67
2022/08/08 02:06:53;;;;;;;;;;;;;;;21.25;56.28;102197.38;1033066;28;685;-67
2022/08/08 02:07:43;;;;;;;;;;;;;;;21.26;56.06;102200.94;1032407;28;658;-67
2022/08/08 02:08:34;;;;;;;;;;;;;;;21.26;56.23;102198.25;1029254;28;1111;-68
2022/08/08 02:09:24;;;;;;;;;;;;;;;21.23;56.10;102203.94;1029418;28;649;-67
2022/08/08 02:10:15;;;;;;;;;;;;;;;21.22;56.26;102202.22;1033204;28;642;-66
2022/08/08 02:11:05;;;;;;;;;;;;;;;21.22;55.90;102199.50;1033277;28;627;-66
2022/08/08 02:11:55;;;;;;;;;;;;;;;21.21;56.10;102203.19;1033336;28;623;-66
2022/08/08 02:12:46;;;;;;;;;;;;;;;21.21;56.27;102201.34;1033325;28;669;-66
2022/08/08 02:13:36;;;;;;;;;;;;;;;21.23;56.16;102198.50;1033160;28;611;-66
2022/08/08 02:14:27;;;;;;;;;;;;;;;21.23;56.28;102203.94;1033202;28;818;-66
2022/08/08 02:15:17;;;;;;;;;;;;;;;21.20;55.98;102199.63;1033172;28;619;-66
2022/08/08 02:16:08;;;;;;;;;;;;;;;21.23;55.99;102198.50;1036502;28;1268;-66
2022/08/08 02:16:58;;;;;;;;;;;;;;;21.23;56.20;102207.50;1035452;28;1915;-66
2022/08/08 02:17:48;;;;;;;;;;;;;;;21.19;56.18;102202.44;1036670;28;646;-66
2022/08/08 02:18:39;;;;;;;;;;;;;;;21.19;56.33;102208.72;1036625;28;690;-66
2022/08/08 02:19:29;;;;;;;;;;;;;;;21.20;56.07;102205.06;1035779;28;634;-67
2022/08/08 02:20:20;;;;;;;;;;;;;;;21.20;56.20;102198.78;1036979;28;662;-66
2022/08/08 02:22:31;;;;;;;;;;;;;;;21.13;56.07;102203.84;1037717;28;629;-66
2022/08/08 02:23:22;;;;;;;;;;;;;;;21.15;56.27;102196.41;1036262;28;669;-66
2022/08/08 02:24:12;;;;;;;;;;;;;;;21.13;56.08;102202.00;1036688;28;764;-66
2022/08/08 02:25:03;;;;;;;;;;;;;;;21.15;56.26;102197.28;1036745;28;630;-66
2022/08/08 02:25:53;;;;;;;;;;;;;;;21.18;56.15;102200.72;1035495;28;631;-66
2022/08/08 02:26:44;;;;;;;;;;;;;;;21.17;56.14;102205.28;1035379;28;647;-67
2022/08/08 02:27:34;;;;;;;;;;;;;;;21.19;56.06;102207.84;1035845;28;619;-66
2022/08/08 02:28:25;;;;;;;;;;;;;;;21.19;56.04;102205.16;1036919;28;641;-67
2022/08/08 02:29:16;;;;;;;;;;;;;;;21.17;56.01;102213.41;1037207;28;689;-66
2022/08/08 02:30:06;;;;;;;;;;;;;;;21.15;56.18;102210.84;1036579;28;678;-66
2022/08/08 02:30:56;;;;;;;;;;;;;;;21.13;56.10;102209.28;1036727;28;709;-66
2022/08/08 02:31:47;;;;;;;;;;;;;;;21.14;56.40;102211.84;1036602;28;705;-67
2022/08/08 02:32:37;;;;;;;;;;;;;;;21.17;56.10;102207.13;1036563;28;646;-67
2022/08/08 02:33:28;;;;;;;;;;;;;;;21.14;56.22;102203.69;1036721;28;665;-66
2022/08/08 02:34:18;;;;;;;;;;;;;;;21.15;56.18;102200.00;1036644;28;634;-65
2022/08/08 02:35:09;;;;;;;;;;;;;;;21.15;56.06;102200.00;1036798;28;622;-66
2022/08/08 02:35:59;;;;;;;;;;;;;;;21.13;56.06;102204.72;1036684;28;662;-66
2022/08/08 02:36:49;;;;;;;;;;;;;;;21.13;56.17;102204.72;1036692;28;1894;-65
2022/08/08 02:37:40;;;;;;;;;;;;;;;21.14;56.17;102206.41;1035701;28;650;-66
2022/08/08 02:38:30;;;;;;;;;;;;;;;21.10;56.43;102204.97;1036589;28;682;-66
2022/08/08 02:39:21;;;;;;;;;;;;;;;21.10;56.22;102210.41;1036708;28;635;-66
2022/08/08 02:40:11;;;;;;;;;;;;;;;21.10;56.42;102210.41;1036703;28;681;-66
2022/08/08 02:41:01;;;;;;;;;;;;;;;21.11;56.37;102213.97;1035856;28;773;-66
2022/08/08 02:41:52;;;;;;;;;;;;;;;21.06;56.33;102203.53;1035653;28;719;-67
2022/08/08 02:42:42;;;;;;;;;;;;;;;21.08;56.17;102211.53;1037225;28;611;-66
2022/08/08 02:43:33;;;;;;;;;;;;;;;21.07;56.36;102209.81;1036745;28;654;-66
2022/08/08 02:44:24;;;;;;;;;;;;;;;21.05;56.46;102209.94;1036580;28;610;-66
2022/08/08 02:45:15;;;;;;;;;;;;;;;21.08;56.29;102206.09;1035749;28;646;-67
2022/08/08 02:46:05;;;;;;;;;;;;;;;21.10;56.34;102207.69;1035721;28;710;-67
2022/08/08 02:46:56;;;;;;;;;;;;;;;21.07;56.40;102202.53;1036944;28;701;-67
2022/08/08 02:47:46;;;;;;;;;;;;;;;21.08;56.49;102200.69;1032178;28;760;-67
2022/08/08 02:48:36;;;;;;;;;;;;;;;21.06;56.17;102202.66;1033332;28;583;-66
2022/08/08 02:49:27;;;;;;;;;;;;;;;21.06;56.06;102198.09;1037158;28;669;-67
2022/08/08 02:50:17;;;;;;;;;;;;;;;21.04;56.56;102197.38;1036674;28;670;-66
2022/08/08 02:51:08;;;;;;;;;;;;;;;21.05;56.38;102196.38;1036603;28;725;-66
2022/08/08 02:51:58;;;;;;;;;;;;;;;21.02;56.46;102202.06;1036589;28;677;-66
2022/08/08 02:52:49;;;;;;;;;;;;;;;21.01;56.38;102200.34;1036226;28;646;-66
2022/08/08 02:53:39;;;;;;;;;;;;;;;21.03;56.27;102198.38;1036512;28;615;-66
2022/08/08 02:54:30;;;;;;;;;;;;;;;20.99;56.09;102199.63;1036541;28;732;-67
2022/08/08 02:55:20;;;;;;;;;;;;;;;21.01;56.31;102200.34;1035258;28;666;-67
2022/08/08 02:56:10;;;;;;;;;;;;;;;20.98;56.65;102206.03;1036638;28;667;-66
2022/08/08 02:57:01;;;;;;;;;;;;;;;20.99;56.33;102204.19;1036451;28;1894;-66
2022/08/08 02:57:51;;;;;;;;;;;;;;;20.97;56.64;102212.44;1036588;28;670;-66
2022/08/08 02:58:42;;;;;;;;;;;;;;;20.99;56.53;102205.03;1035583;28;666;-66
2022/08/08 02:59:32;;;;;;;;;;;;;;;20.97;56.41;102211.59;1035216;28;670;-67
2022/08/08 03:00:22;;;;;;;;;;;;;;;20.95;56.54;102211.75;1036569;28;662;-67
2022/08/08 03:01:13;;;;;;;;;;;;;;;20.95;56.52;102211.75;1036555;28;689;-66
2022/08/08 03:02:03;;;;;;;;;;;;;;;20.97;56.42;102209.75;1036657;28;662;-67
2022/08/08 03:02:54;;;;;;;;;;;;;;;20.98;56.34;102206.03;1036741;28;679;-65
2022/08/08 03:03:44;;;;;;;;;;;;;;;20.98;56.46;102208.75;1035330;28;607;-66
2022/08/08 03:04:35;;;;;;;;;;;;;;;20.98;56.45;102206.03;1035580;28;693;-67
2022/08/08 03:05:25;;;;;;;;;;;;;;;20.97;56.35;102212.44;1036528;28;619;-66
2022/08/08 03:06:15;;;;;;;;;;;;;;;20.99;56.64;102212.31;1036625;28;704;-66
2022/08/08 03:07:06;;;;;;;;;;;;;;;20.99;56.20;102217.75;1036076;28;651;-67
2022/08/08 03:07:56;;;;;;;;;;;;;;;21.01;56.60;102213.91;1036594;28;659;-66
2022/08/08 03:08:47;;;;;;;;;;;;;;;20.97;56.21;102209.75;1036713;28;689;-67
2022/08/08 03:09:37;;;;;;;;;;;;;;;20.94;56.47;102210.03;1035350;28;674;-67
2022/08/08 03:10:28;;;;;;;;;;;;;;;20.96;56.32;102218.88;1036491;28;681;-68
2022/08/08 03:11:18;;;;;;;;;;;;;;;20.96;56.53;102213.44;1036591;28;685;-67
2022/08/08 03:12:09;;;;;;;;;;;;;;;20.95;56.41;102214.47;1036629;28;619;-67
2022/08/08 03:12:59;;;;;;;;;;;;;;;20.95;56.88;102222.59;1036566;28;690;-67
2022/08/08 03:13:50;;;;;;;;;;;;;;;20.95;56.56;102209.03;1036537;28;772;-67
2022/08/08 03:14:40;;;;;;;;;;;;;;;20.92;56.61;102203.03;1036395;28;638;-67
2022/08/08 03:15:30;;;;;;;;;;;;;;;20.94;56.33;102211.88;1036527;28;626;-67
2022/08/08 03:16:21;;;;;;;;;;;;;;;20.96;56.38;102212.63;1029587;28;655;-67
2022/08/08 03:17:11;;;;;;;;;;;;;;;20.94;56.83;102222.72;1029532;28;1894;-67
2022/08/08 03:18:02;;;;;;;;;;;;;;;20.94;56.34;102214.59;1029564;28;647;-67
2022/08/08 03:18:52;;;;;;;;;;;;;;;20.94;56.36;102214.59;1029564;28;932;-67
2022/08/08 03:19:43;;;;;;;;;;;;;;;20.93;56.69;102212.88;1033240;28;638;-67
2022/08/08 03:20:33;;;;;;;;;;;;;;;20.92;56.24;102212.00;1034473;28;688;-70
2022/08/08 03:21:23;;;;;;;;;;;;;;;20.89;56.34;102223.13;1030366;28;721;-67
2022/08/08 03:22:14;;;;;;;;;;;;;;;20.90;56.51;102218.56;1029640;28;698;-67
2022/08/08 03:23:04;;;;;;;;;;;;;;;20.86;56.64;102217.09;1029588;28;631;-67
2022/08/08 03:23:55;;;;;;;;;;;;;;;20.86;56.87;102220.66;1029563;28;638;-67
2022/08/08 03:24:45;;;;;;;;;;;;;;;20.89;56.53;102219.53;1029656;28;607;-67
2022/08/08 03:25:36;;;;;;;;;;;;;;;20.89;56.50;102220.41;1029470;28;666;-67
2022/08/08 03:26:26;;;;;;;;;;;;;;;20.91;56.64;102231.97;1033244;28;618;-67
2022/08/08 03:27:16;;;;;;;;;;;;;;;20.91;56.49;102229.25;1033272;28;741;-67
2022/08/08 03:28:07;;;;;;;;;;;;;;;20.91;56.49;102231.13;1030957;28;618;-67
2022/08/08 03:28:57;;;;;;;;;;;;;;;20.90;56.44;102229.41;1029547;28;677;-67
2022/08/08 03:29:48;;;;;;;;;;;;;;;20.88;56.31;102237.66;1029492;28;654;-68
2022/08/08 03:30:38;;;;;;;;;;;;;;;20.83;56.69;102234.47;1029458;28;713;-67
2022/08/08 03:33:47;;;;;;;;;;;;;;;20.85;56.39;102234.34;1029073;28;657;-67
2022/08/08 03:34:37;;;;;;;;;;;;;;;20.84;56.44;102236.19;1029592;28;651;-67
2022/08/08 03:35:27;;;;;;;;;;;;;;;20.85;56.37;102242.47;1029486;28;618;-67
2022/08/08 03:36:18;;;;;;;;;;;;;;;20.86;56.75;102245.06;1029081;28;732;-68
2022/08/08 03:37:08;;;;;;;;;;;;;;;20.83;56.47;102242.59;1029444;28;1890;-67
2022/08/08 03:37:59;;;;;;;;;;;;;;;20.82;56.70;102248.16;1029496;28;685;-66
2022/08/08 03:38:49;;;;;;;;;;;;;;;20.83;56.41;102244.44;1029596;28;655;-67
2022/08/08 03:39:40;;;;;;;;;;;;;;;20.80;56.89;102246.44;1029428;28;673;-66
2022/08/08 03:40:30;;;;;;;;;;;;;;;20.84;56.53;102251.59;1029562;28;615;-66
2022/08/08 03:41:20;;;;;;;;;;;;;;;20.78;56.63;102240.28;1033179;28;689;-67
2022/08/08 03:42:11;;;;;;;;;;;;;;;20.83;56.76;102248.03;1034297;28;668;-67
2022/08/08 03:43:01;;;;;;;;;;;;;;;20.82;56.47;102243.59;1030851;28;629;-66
2022/08/08 03:43:52;;;;;;;;;;;;;;;20.79;56.80;102238.44;1029618;28;709;-66
2022/08/08 03:44:42;;;;;;;;;;;;;;;20.81;56.63;102236.44;1033243;28;630;-66
2022/08/08 03:45:33;;;;;;;;;;;;;;;20.84;56.32;102236.19;1033802;28;744;-66
2022/08/08 03:46:23;;;;;;;;;;;;;;;20.81;56.64;102247.28;1030906;28;672;-66
2022/08/08 03:47:13;;;;;;;;;;;;;;;20.79;56.66;102241.13;1029535;28;633;-66
2022/08/08 03:48:07;;;;;;;;;;;;;;;20.82;56.36;102237.31;1029583;28;713;-67
2022/08/08 03:48:57;;;;;;;;;;;;;;;20.79;56.72;102233.00;1029556;28;626;-66
2022/08/08 03:49:48;;;;;;;;;;;;;;;20.76;56.94;102238.72;1029033;28;674;-66
2022/08/08 03:50:38;;;;;;;;;;;;;;;20.76;56.70;102244.16;1029098;28;518;-66
2022/08/08 03:51:29;;;;;;;;;;;;;;;20.78;56.80;102242.16;1029473;28;662;-66
2022/08/08 03:52:19;;;;;;;;;;;;;;;20.76;56.88;102236.88;1029635;28;656;-66
2022/08/08 03:53:10;;;;;;;;;;;;;;;20.71;57.05;102240.97;1029541;28;633;-67
2022/08/08 03:54:00;;;;;;;;;;;;;;;20.74;56.49;102243.41;1029548;28;677;-67
2022/08/08 03:54:51;;;;;;;;;;;;;;;20.74;56.62;102244.28;1029442;28;641;-67
2022/08/08 03:55:41;;;;;;;;;;;;;;;20.74;56.71;102246.13;1029478;28;682;-66
2022/08/08 03:56:32;;;;;;;;;;;;;;;20.77;56.31;102241.31;1029508;28;700;-67
2022/08/08 03:57:22;;;;;;;;;;;;;;;20.74;56.69;102238.84;1033339;28;607;-67
2022/08/08 03:58:12;;;;;;;;;;;;;;;20.76;56.62;102244.16;1034373;28;678;-66
2022/08/08 03:59:03;;;;;;;;;;;;;;;20.75;56.52;102245.13;1031007;28;715;-66
2022/08/08 03:59:53;;;;;;;;;;;;;;;20.75;56.90;102243.28;1029474;28;634;-67
2022/08/08 04:00:44;;;;;;;;;;;;;;;20.72;56.51;102239.97;1029431;28;689;-66
2022/08/08 04:01:34;;;;;;;;;;;;;;;20.68;57.22;102250.19;1029563;28;778;-66
2022/08/08 04:02:25;;;;;;;;;;;;;;;20.70;56.64;102250.94;1029499;28;717;-66
2022/08/08 04:03:15;;;;;;;;;;;;;;;20.74;57.08;102252.41;1029683;28;766;-66
2022/08/08 04:04:06;;;;;;;;;;;;;;;20.76;56.87;102245.00;1029434;28;681;-66
2022/08/08 04:04:56;;;;;;;;;;;;;;;20.74;56.97;102246.13;1029112;28;748;-66
2022/08/08 04:05:46;;;;;;;;;;;;;;;20.74;56.71;102248.81;1029431;28;589;-66
2022/08/08 04:06:37;;;;;;;;;;;;;;;20.72;56.68;102250.81;1029868;28;685;-66
2022/08/08 04:07:27;;;;;;;;;;;;;;;20.71;56.45;102251.78;1030275;28;692;-66
2022/08/08 04:08:18;;;;;;;;;;;;;;;20.70;56.70;102247.38;1030022;28;1223;-66
2022/08/08 04:09:08;;;;;;;;;;;;;;;20.72;56.82;102248.09;1034136;28;607;-66
2022/08/08 04:09:59;;;;;;;;;;;;;;;20.71;56.95;102257.22;1035131;28;641;-66
2022/08/08 04:10:49;;;;;;;;;;;;;;;20.64;56.56;102250.59;1031563;28;606;-66
2022/08/08 04:11:39;;;;;;;;;;;;;;;20.68;56.85;102260.19;1033949;28;637;-66
2022/08/08 04:12:30;;;;;;;;;;;;;;;20.65;56.73;102258.59;1034848;28;662;-66
2022/08/08 04:13:20;;;;;;;;;;;;;;;20.68;56.96;102262.88;1030685;28;677;-66
2022/08/08 04:14:11;;;;;;;;;;;;;;;20.65;57.13;102253.16;1030474;28;712;-66
2022/08/08 04:15:01;;;;;;;;;;;;;;;20.68;56.88;102268.31;1030862;28;633;-66
2022/08/08 04:15:52;;;;;;;;;;;;;;;20.64;57.07;102259.56;1032521;28;1281;-66
2022/08/08 04:16:42;;;;;;;;;;;;;;;20.62;56.80;102260.69;1037031;28;615;-67
2022/08/08 04:17:32;;;;;;;;;;;;;;;20.67;56.45;102258.47;1037206;28;618;-66
2022/08/08 04:18:23;;;;;;;;;;;;;;;20.67;57.03;102255.75;1037273;28;666;-66
2022/08/08 04:19:13;;;;;;;;;;;;;;;20.69;56.99;102256.47;1037179;28;667;-66
2022/08/08 04:20:04;;;;;;;;;;;;;;;20.63;57.28;102259.69;1037203;28;685;-67
2022/08/08 04:20:54;;;;;;;;;;;;;;;20.68;56.79;102265.59;1037086;28;666;-67
2022/08/08 04:21:45;;;;;;;;;;;;;;;20.68;57.02;102257.47;1037191;28;712;-66
2022/08/08 04:22:35;;;;;;;;;;;;;;;20.64;57.00;102250.59;1035784;28;631;-66
2022/08/08 04:23:26;;;;;;;;;;;;;;;20.63;56.67;102254.28;1036378;28;1169;-67
2022/08/08 04:24:16;;;;;;;;;;;;;;;20.62;56.96;102263.41;1032774;28;706;-66
2022/08/08 04:25:06;;;;;;;;;;;;;;;20.63;56.78;102259.69;1032807;28;614;-66
2022/08/08 04:25:57;;;;;;;;;;;;;;;20.61;56.95;102262.53;1037685;28;653;-66
2022/08/08 04:26:47;;;;;;;;;;;;;;;20.63;56.78;102257.84;1036995;28;656;-67
2022/08/08 04:27:38;;;;;;;;;;;;;;;20.66;56.76;102262.16;1037187;28;708;-66
2022/08/08 04:28:28;;;;;;;;;;;;;;;20.59;57.00;102263.69;1037211;28;685;-66
2022/08/08 04:29:19;;;;;;;;;;;;;;;20.63;57.14;102254.28;1037199;28;768;-67
2022/08/08 04:30:09;;;;;;;;;;;;;;;20.66;56.95;102262.16;1037083;28;642;-67